Colfax, Washington
Current Conditions -  °F | °C
As of 10:53 AM on Friday 31 Oct 2014 (Local Time) from KPUW Reporting Station
Clear Clear  
Wind Chill: 52°   Ceiling: Unl
Heat Index: 52°   Visibility: 7mi
Dew Point: 46°   Wind: 5mph
Humidity: 80%   Direction: 130°SE
Pressure: 29.77"   Gusts: NA
Location:  46.88°N, 117.36°W
Report Text: KPUW 311753Z AUTO 13004KT 7SM CLR 11/08 A2977 RMK AO2 SLP080 T01110078 10111 20083 58001
Loading
Personal Weather Stations






























Interactive Weather Map
Tropical Storm Tracking
New forecast layout! Learn more

10-Day Weather Forecast

Advertisements
Track Severe Weather on mobile